Nearby METAR Reports

 

KSJC - San Jose, California, USA
Distance from station: NO 14km
aktuell: 02/04/2020 09:53
klar
klar
 Wind von calm
Wind: Windstill
Temperatur: 8°C
Taupunkt: 1°C
Luftfeuchte: 62%
Luftdruck: 1016.9 hPa
Clouds: klar
Visibility: 16 km
2020/04/02 07:53 KSJC 020753Z AUTO 00000KT 10SM CLR 08/01 A3003 RMK AO2 SLP167 T00830011 401720078
KNUQ - Moffett Nas/Mtn, California, USA
Distance from station: N 14km
aktuell: 21/11/2019 17:56
NOT Current

 
Luftdruck: 1011.2 hPa
2019/11/21 16:56 KNUQ 211656Z AUTO A2986 RMK AO2 SLP116 PWINO $
KPAO - Palo Alto, California, USA
Distance from station: NNW 23km
aktuell: 02/04/2020 06:47
NOT Current
klar
klar
 Wind von W
Wind: W 15 km/h
Temperatur: 11°C
Taupunkt: 4°C
Luftfeuchte: 62%
Luftdruck: 1015.9 hPa
Clouds: klar
Visibility: 16 km
2020/04/02 04:47 KPAO 020447Z 27008KT 10SM SKC 11/04 A3000 RMK LAST
 
KRHV - San Jose/Reid, California, USA
Distance from station: ONO 19km
aktuell: 02/04/2020 06:47
NOT Current
klar
klar
 Wind von N
Wind: N 6 km/h
Temperatur: 11°C
Taupunkt: 4°C
Luftfeuchte: 62%
Luftdruck: 1016.3 hPa
Clouds: klar
Visibility: 16 km
2020/04/02 04:47 KRHV 020447Z 01003KT 10SM SKC 11/04 A3001 RMK LAST
KOAK - Oakland, California, USA
Distance from station: NNW 50km
aktuell: 02/04/2020 09:53
klar
klar
 Wind von calm
Wind: Windstill
Temperatur: 11°C
Taupunkt: 4°C
Luftfeuchte: 62%
Luftdruck: 1016.9 hPa
Clouds: klar
Visibility: 16 km
2020/04/02 07:53 KOAK 020753Z 00000KT 10SM CLR 11/04 A3003 RMK AO2 SLP169 T01060044 401780089
KSQL - San Carlos Airpo, California, USA
Distance from station: NW 34km
aktuell: 02/04/2020 10:40
klar
klar
 Wind von calm
Wind: Windstill
Temperatur: 8°C
Taupunkt: 4°C
Luftfeuchte: 76%
Luftdruck: 1017.3 hPa
Clouds: klar
Visibility: 16 km
2020/04/02 08:40 KSQL 020840Z AUTO 00000KT 10SM CLR 08/04 A3004 RMK AO2
 
KSFO - San Francisco, California, USA
Distance from station: NW 49km
aktuell: 02/04/2020 09:56
klar
klar
 Wind von W
Wind: W 15 km/h
Temperatur: 9°C
Wind Chill: 7°C
Taupunkt: 5°C
Luftfeuchte: 76%
Luftdruck: 1016.6 hPa
Clouds: klar
Visibility: 16 km
2020/04/02 07:56 KSFO 020756Z 27008KT 10SM CLR 09/05 A3002 RMK AO2 SLP166 T00940050 401560094
KE16 - San Martin, California, USA
Distance from station: OSO 43km
aktuell: 14/11/2019 10:35
NOT Current
geschlossene Wolkendecke
geschlossene Wolkendecke
 Wind von SO
Wind: SO 11 km/h
Temperatur: 12°C
Taupunkt: 10°C
Luftfeuchte: 88%
Luftdruck: 1017.6 hPa
Clouds: geschlossene Wolkendecke
Visibility: 16 km
Cloud details: geschlossene Wolkendecke 427 m
2019/11/14 09:35 KE16 140935Z AUTO 13006KT 10SM OVC014 12/10 A3005 RMK AO2
KWVI - Watsonville, California, USA
Distance from station: SSO 44km
aktuell: 02/04/2020 09:53
klar
klar
 Wind von NNW
Wind: NNW 6 km/h
Temperatur: 7°C
Taupunkt: 4°C
Luftfeuchte: 81%
Luftdruck: 1016.9 hPa
Clouds: klar
Visibility: 16 km
2020/04/02 07:53 KWVI 020753Z AUTO 33003KT 10SM CLR 07/04 A3003 RMK AO2 SLP167 T00720039 401830072
 
KHAF - Half Moon Bay, California, USA
Distance from station: WNW 50km
aktuell: 02/04/2020 10:40
klar
klar
 Wind von NNO
Wind: NNO 7 km/h
Temperatur: 6°C
Wind Chill: 4°C
Taupunkt: 4°C
Luftfeuchte: 87%
Luftdruck: 1017.3 hPa
Clouds: klar
Visibility: 16 km
2020/04/02 08:40 KHAF 020840Z AUTO 03004KT 10SM CLR 06/04 A3004 RMK AO2
KHWD - Hayward, California, USA
Distance from station: N 44km
aktuell: 02/04/2020 09:54
klar
klar
 Wind von ONO
Wind: ONO 6 km/h
Temperatur: 9°C
Taupunkt: 4°C
Luftfeuchte: 71%
Luftdruck: 1016.6 hPa
Clouds: klar
Visibility: 16 km
2020/04/02 07:54 KHWD 020754Z AUTO 06003KT 10SM CLR 09/04 A3002 RMK AO2 SLP176 T00890044 401610083
KLVK - Livermore, California, USA
Distance from station: NNO 51km
aktuell: 02/04/2020 09:53
klar
klar
 Wind von O
Wind: O 6 km/h
Temperatur: 6°C
Taupunkt: 3°C
Luftfeuchte: 81%
Luftdruck: 1016.6 hPa
Clouds: klar
Visibility: 16 km
2020/04/02 07:53 KLVK 020753Z AUTO 08003KT 10SM CLR 06/03 A3002 RMK AO2 SLP163 T00560033 401670056